Sunday, December 16, 2018, 5:28 AM EST
Back to Local

KUNV, State College, University Park Airport

Location: State College, PA, United States Lat: 40.85
Local Time: 5:28 AM EST (10:28 GMT) Lon: -77.85
Time Zone: US/Eastern Elev: 1240 ft

Show me the last for .
Show Decoded

2018-12-16 05:16 METAR KUNV 161016Z AUTO 03008KT 2 1/2SM +DZ BKN002 BKN009 OVC015 02/02 A2997 RMK
                 AO2 P0001 T00220022 =
2018-12-16 04:57 METAR KUNV 160957Z AUTO 03008KT 2 1/2SM +DZ BKN002 BKN013 OVC020 02/02 A2997 RMK
                 AO2 P0006 T00230022 =
2018-12-16 04:36 METAR KUNV 160936Z AUTO 03008KT 2SM +RA BKN002 OVC016 02/02 A2998 RMK AO2 P0004
                 T00230022 =
2018-12-16 04:16 METAR KUNV 160916Z AUTO 02006KT 2 1/2SM RA BKN004 BKN016 OVC021 03/02 A2998 RMK
                 AO2 P0002 T00250023 =
2018-12-16 03:57 METAR KUNV 160857Z AUTO 03006KT 2 1/2SM +RA BKN006 BKN012 OVC017 03/02 A2999 RMK
                 AO2 P0015 T00250023 =
2018-12-16 03:37 METAR KUNV 160837Z AUTO 05004KT 2 1/2SM RA BKN006 OVC013 03/02 A2999 RMK AO2
                 P0013 T00250023 =
2018-12-16 03:16 METAR KUNV 160816Z AUTO 04006KT 2 1/2SM +RA BKN004 BKN007 OVC021 03/03 A2999 RMK
                 AO2 P0006 T00250025 =
2018-12-16 02:56 METAR KUNV 160756Z AUTO 03008KT 2SM +RA SCT004 SCT009 OVC018 03/03 A2998 RMK AO2
                 P0030 T00260025 =
2018-12-16 02:36 METAR KUNV 160736Z AUTO 02012G17KT 1 3/4SM +RA BKN003 OVC018 03/03 A2998 RMK AO2
                 P0022 T00260025 =
2018-12-16 02:16 METAR KUNV 160716Z AUTO 03010KT 1 3/4SM +RA BKN003 BKN017 OVC025 03/03 A2999 RMK
                 AO2 P0009 T00260025 =
2018-12-16 01:57 METAR KUNV 160657Z AUTO 03010KT 2SM +RA SCT003 BKN025 OVC033 03/03 A3000 RMK AO2
                 P0024 T00270025 =
2018-12-16 01:36 METAR KUNV 160636Z AUTO 04009KT 2SM RA SCT003 BKN019 OVC032 03/03 A3000 RMK AO2
                 P0014 T00270025 =
2018-12-16 01:16 METAR KUNV 160616Z AUTO 03007KT 2SM RA SCT003 SCT020 OVC030 03/03 A3001 RMK AO2
                 P0005 T00280026 =
2018-12-16 00:57 METAR KUNV 160557Z AUTO 02007KT 2 1/2SM RA BKN029 BKN037 OVC055 03/03 A3001 RMK
                 AO2 P0018 T00300026 =
2018-12-16 00:37 METAR KUNV 160537Z AUTO 03006KT 2 1/2SM +RA OVC027 03/03 A3003 RMK AO2 P0011
                 T00310026 =
2018-12-16 00:16 METAR KUNV 160516Z AUTO 05007KT 7SM RA OVC027 03/03 A3003 RMK AO2 P0002
                 T00320025 =
2018-12-15 23:56 METAR KUNV 160456Z AUTO 02010KT 2 1/2SM RA SCT027 BKN033 OVC050 03/03 A3003 RMK
                 AO2 P0008 T00330025 =
2018-12-15 23:37 METAR KUNV 160437Z AUTO 03009KT 5SM RA SCT025 SCT041 OVC050 04/03 A3003 RMK AO2
                 T00350025 =
2018-12-15 23:16 METAR KUNV 160416Z AUTO 05006KT 10SM -RA SCT025 BKN045 OVC080 04/02 A3005 RMK
                 AO2 T00370023 =
2018-12-15 22:57 METAR KUNV 160357Z AUTO 04008KT 10SM RA SCT026 BKN035 OVC060 04/02 A3004 RMK AO2
                 T00400023 =
2018-12-15 22:36 METAR KUNV 160336Z AUTO 03008KT 10SM RA BKN026 OVC039 04/03 A3005 RMK AO2
                 T00420025 =
2018-12-15 22:16 METAR KUNV 160316Z AUTO 03008KT 10SM DZ OVC028 04/02 A3005 RMK AO2 T00420024 =
2018-12-15 21:53 METAR KUNV 160253Z 05010KT 7SM BKN028 OVC043 04/02 A3006 =
2018-12-15 20:53 METAR KUNV 160153Z 02005KT 7SM BKN030 OVC045 05/03 A3007 =
2018-12-15 19:53 METAR KUNV 160053Z 04006KT 7SM BKN032 OVC100 05/03 A3008 =
2018-12-15 18:53 METAR KUNV 152353Z 06005KT 7SM SCT030 BKN050 OVC080 05/03 A3008 =
2018-12-15 17:53 METAR KUNV 152253Z 05004KT 7SM SCT028 OVC045 05/04 A3009 =
2018-12-15 16:53 METAR KUNV 152153Z 01007KT 6SM BR SCT038 OVC080 05/04 A3007 =
2018-12-15 15:53 METAR KUNV 152053Z 05005KT 5SM BR SCT075 OVC100 05/05 A3004 =
2018-12-15 14:53 METAR KUNV 151953Z 03005KT 4SM BR SCT025 OVC075 06/05 A3004 =
2018-12-15 13:53 METAR KUNV 151853Z 00000KT 5SM BR OVC033 05/05 A3008 =
2018-12-15 12:53 METAR KUNV 151753Z 00000KT 4SM BR OVC033 05/05 A3012 =
2018-12-15 11:53 METAR KUNV 151653Z 31003KT 1 1/2SM -DZ SCT004 BKN034 OVC080 04/04 A3013 =
2018-12-15 10:53 METAR KUNV 151553Z COR 00000KT 2SM BR SCT007 OVC024 04/04 A3015 =
2018-12-15 09:53 METAR KUNV 151453Z 00000KT 1SM -DZ BKN002 OVC007 04/04 A3014 =
2018-12-15 08:53 METAR KUNV 151353Z 00000KT 1/4SM FG OVC002 03/03 A3014 =
2018-12-15 07:53 METAR KUNV 151253Z 00000KT 1/4SM FG OVC002 03/03 A3014 =
2018-12-15 06:53 METAR KUNV 151153Z 00000KT 1/4SM FG OVC002 03/03 A3015 =
2018-12-15 05:53 METAR KUNV 151053Z 06003KT 1/4SM FG OVC002 03/03 A3015 =
2018-12-15 05:37 METAR KUNV 151037Z AUTO 04005KT 1/4SM FG OVC002 03/03 A3014 RMK AO2 P0001
                 T00290029 =

Support USWX by starting your Amazon purchase here.